createdAt,value
2024-05-09T00:01:25.706Z,10.48
2024-05-09T00:03:57.758Z,10.46
2024-05-09T00:06:27.222Z,10.42
2024-05-09T00:08:56.566Z,10.36
2024-05-09T00:11:26.104Z,10.32
2024-05-09T00:13:55.530Z,10.27
2024-05-09T00:16:24.899Z,10.25
2024-05-09T00:18:56.972Z,10.19
2024-05-09T00:21:26.372Z,10.12
2024-05-09T00:23:55.764Z,10.10
2024-05-09T00:26:25.219Z,10.08
2024-05-09T00:28:54.680Z,10.08
2024-05-09T00:31:24.035Z,10.05
2024-05-09T00:33:53.525Z,10.02
2024-05-09T00:36:25.521Z,9.98
2024-05-09T00:38:54.856Z,9.97
2024-05-09T00:41:24.331Z,9.93
2024-05-09T00:43:53.776Z,9.90
2024-05-09T00:46:23.669Z,9.87
2024-05-09T00:48:53.201Z,9.87
2024-05-09T00:51:25.290Z,9.81
2024-05-09T00:53:54.682Z,9.81
2024-05-09T00:56:24.815Z,9.80
2024-05-09T00:58:54.611Z,9.74
2024-05-09T01:01:27.709Z,9.70
2024-05-09T01:03:57.595Z,9.67
2024-05-09T01:06:29.659Z,9.65
2024-05-09T01:08:59.068Z,9.60
2024-05-09T01:11:36.092Z,9.54
2024-05-09T01:14:05.558Z,9.49
2024-05-09T01:16:35.225Z,9.43
2024-05-09T01:19:06.743Z,9.37
2024-05-09T01:21:43.054Z,9.33
2024-05-09T01:24:14.976Z,9.30
2024-05-09T01:26:44.318Z,9.26
2024-05-09T01:29:13.762Z,9.23
2024-05-09T01:31:43.303Z,9.17
2024-05-09T01:34:12.847Z,9.14
2024-05-09T01:36:42.198Z,9.12
2024-05-09T01:39:11.644Z,9.09
2024-05-09T01:41:43.647Z,9.06
2024-05-09T01:44:13.027Z,9.05
2024-05-09T01:46:42.432Z,9.00
2024-05-09T01:49:11.861Z,9.00
2024-05-09T01:51:41.315Z,8.97
2024-05-09T01:54:10.780Z,8.93
2024-05-09T01:56:42.745Z,8.91
2024-05-09T01:59:12.755Z,8.86
2024-05-09T02:01:56.252Z,8.87
2024-05-09T02:04:27.294Z,8.89
2024-05-09T02:06:56.729Z,8.85
2024-05-09T02:09:26.070Z,8.85
2024-05-09T02:11:58.273Z,8.80
2024-05-09T02:14:28.094Z,8.77
2024-05-09T02:16:57.604Z,8.77
2024-05-09T02:19:29.614Z,8.74
2024-05-09T02:21:59.026Z,8.69
2024-05-09T02:24:28.459Z,8.68
2024-05-09T02:27:00.582Z,8.62
2024-05-09T02:29:30.092Z,8.61
2024-05-09T02:31:59.611Z,8.64
2024-05-09T02:34:26.448Z,8.64
2024-05-09T02:36:56.253Z,8.64
2024-05-09T02:39:23.179Z,8.63
2024-05-09T02:41:52.526Z,8.63
2024-05-09T02:44:21.975Z,8.62
2024-05-09T02:46:52.189Z,8.57
2024-05-09T02:49:19.119Z,8.59
2024-05-09T02:51:48.553Z,8.57
2024-05-09T02:54:15.451Z,8.53
2024-05-09T02:56:44.767Z,8.52
2024-05-09T02:59:11.733Z,8.46
2024-05-09T03:01:43.783Z,8.43
2024-05-09T03:04:10.912Z,8.41
2024-05-09T03:06:43.429Z,8.40
2024-05-09T03:09:10.401Z,8.37
2024-05-09T03:11:40.581Z,8.34
2024-05-09T03:14:07.503Z,8.32
2024-05-09T03:16:42.829Z,8.29
2024-05-09T03:19:09.867Z,8.24
2024-05-09T03:21:41.432Z,8.18
2024-05-09T03:24:08.340Z,8.11
2024-05-09T03:26:37.754Z,8.05
2024-05-09T03:29:04.968Z,8.04
2024-05-09T03:31:34.357Z,8.01
2024-05-09T03:34:03.970Z,7.98
2024-05-09T03:36:33.538Z,7.97
2024-05-09T03:39:02.880Z,7.94
2024-05-09T03:41:32.542Z,7.93
2024-05-09T03:43:59.407Z,7.93
2024-05-09T03:46:28.792Z,7.92
2024-05-09T03:48:55.686Z,7.93
2024-05-09T03:51:27.674Z,7.91
2024-05-09T03:53:54.490Z,7.89
2024-05-09T03:56:24.089Z,7.86
2024-05-09T03:58:50.969Z,7.85
2024-05-09T04:01:20.413Z,7.84
2024-05-09T04:03:47.405Z,7.80
2024-05-09T04:06:22.956Z,7.76
2024-05-09T04:08:52.390Z,7.74
2024-05-09T04:11:21.961Z,7.69
2024-05-09T04:13:48.803Z,7.66
2024-05-09T04:16:18.295Z,7.66
2024-05-09T04:18:45.163Z,7.68
2024-05-09T04:21:14.626Z,7.65
2024-05-09T04:23:41.514Z,7.67
2024-05-09T04:26:13.941Z,7.65
2024-05-09T04:28:40.774Z,7.66
2024-05-09T04:31:10.184Z,7.68
2024-05-09T04:33:37.145Z,7.69
2024-05-09T04:36:07.082Z,7.72
2024-05-09T04:38:34.004Z,7.74
2024-05-09T04:41:03.940Z,7.71
2024-05-09T04:43:35.171Z,7.73
2024-05-09T04:46:04.589Z,7.75
2024-05-09T04:48:31.552Z,7.80
2024-05-09T04:51:01.060Z,7.81
2024-05-09T04:53:27.962Z,7.82
2024-05-09T04:55:57.625Z,7.84
2024-05-09T04:58:24.500Z,7.88
2024-05-09T05:00:56.483Z,7.88
2024-05-09T05:03:23.538Z,7.88
2024-05-09T05:05:53.155Z,7.91
2024-05-09T05:08:20.196Z,7.97
2024-05-09T05:10:50.380Z,8.02
2024-05-09T05:13:20.248Z,8.05
2024-05-09T05:15:52.488Z,8.08
2024-05-09T05:18:22.516Z,8.14
2024-05-09T05:20:52.613Z,8.20
2024-05-09T05:23:20.866Z,8.26
2024-05-09T05:25:52.179Z,8.30
2024-05-09T05:28:19.715Z,8.35
2024-05-09T05:30:49.493Z,8.39
2024-05-09T05:33:18.719Z,8.43
2024-05-09T05:35:51.429Z,8.51
2024-05-09T05:38:18.356Z,8.57
2024-05-09T05:40:47.933Z,8.63
2024-05-09T05:43:18.641Z,8.70
2024-05-09T05:45:48.355Z,8.77
2024-05-09T05:48:16.900Z,8.84
2024-05-09T05:50:47.336Z,8.93
2024-05-09T05:53:16.856Z,9.02
2024-05-09T05:55:46.282Z,9.11
2024-05-09T05:58:14.352Z,9.19
2024-05-09T06:00:44.446Z,9.28
2024-05-09T06:03:12.718Z,9.40
2024-05-09T06:05:43.319Z,9.48
2024-05-09T06:08:10.570Z,9.58
2024-05-09T06:10:42.855Z,9.70
2024-05-09T06:13:11.057Z,9.98
2024-05-09T06:15:41.112Z,10.41
2024-05-09T06:18:10.207Z,10.58
2024-05-09T06:20:41.868Z,10.58
2024-05-09T06:23:10.493Z,10.61
2024-05-09T06:25:44.211Z,10.64
2024-05-09T06:28:11.323Z,10.66
2024-05-09T06:30:42.635Z,10.75
2024-05-09T06:33:13.346Z,10.75
2024-05-09T06:35:45.232Z,10.77
2024-05-09T06:38:12.549Z,10.82
2024-05-09T06:40:45.065Z,10.87
2024-05-09T06:43:12.520Z,10.95
2024-05-09T06:45:42.059Z,11.09
2024-05-09T06:48:09.810Z,11.23
2024-05-09T06:50:40.363Z,11.34
2024-05-09T06:53:08.186Z,11.47
2024-05-09T06:55:38.547Z,11.55
2024-05-09T06:58:08.930Z,11.65
2024-05-09T07:00:41.023Z,11.71
2024-05-09T07:03:09.955Z,11.78
2024-05-09T07:05:40.299Z,11.87
2024-05-09T07:08:08.185Z,12.00
2024-05-09T07:10:38.516Z,12.13
2024-05-09T07:13:11.242Z,12.31
2024-05-09T07:15:40.826Z,12.35
2024-05-09T07:18:10.170Z,12.49
2024-05-09T07:20:39.721Z,12.59
2024-05-09T07:23:09.209Z,12.73
2024-05-09T07:25:38.591Z,12.91
2024-05-09T07:28:09.664Z,13.09
2024-05-09T07:30:41.662Z,13.18
2024-05-09T07:33:08.742Z,13.26
2024-05-09T07:35:38.519Z,13.39
2024-05-09T07:38:05.428Z,13.45
2024-05-09T07:40:36.900Z,13.60
2024-05-09T07:43:04.475Z,13.81
2024-05-09T07:53:37.167Z,14.22
2024-05-09T07:56:01.219Z,14.34
2024-05-09T07:58:28.746Z,14.49
2024-05-09T08:00:58.228Z,14.60
2024-05-09T08:03:27.778Z,14.77
2024-05-09T08:05:57.404Z,14.83
2024-05-09T08:08:24.146Z,14.92
2024-05-09T08:10:53.774Z,15.14
2024-05-09T08:13:20.742Z,15.22
2024-05-09T08:15:51.712Z,15.33
2024-05-09T08:18:19.854Z,15.38
2024-05-09T08:20:52.384Z,15.58
2024-05-09T08:23:19.176Z,15.61
2024-05-09T08:25:48.540Z,15.69
2024-05-09T08:28:15.679Z,15.74
2024-05-09T08:30:45.633Z,15.91
2024-05-09T08:33:12.613Z,15.98
2024-05-09T08:35:41.991Z,16.05
2024-05-09T08:38:11.512Z,16.09
2024-05-09T08:40:41.149Z,16.26
2024-05-09T08:43:11.317Z,16.27
2024-05-09T08:45:44.007Z,16.36
2024-05-09T08:48:14.336Z,16.37
2024-05-09T08:50:45.823Z,16.52
2024-05-09T08:53:15.768Z,16.59
2024-05-09T08:55:45.554Z,16.59
2024-05-09T08:58:16.225Z,16.76
2024-05-09T09:00:46.736Z,16.75
2024-05-09T09:03:17.441Z,16.90
2024-05-09T09:05:55.590Z,16.85
2024-05-09T09:08:26.160Z,16.90
2024-05-09T09:11:00.135Z,17.07
2024-05-09T09:13:27.628Z,17.17
2024-05-09T09:15:58.613Z,17.25
2024-05-09T09:18:26.981Z,17.25
2024-05-09T09:20:56.837Z,17.33
2024-05-09T09:23:28.279Z,17.40
2024-05-09T09:26:01.157Z,17.55
2024-05-09T09:28:28.156Z,17.47
2024-05-09T09:31:04.101Z,17.55
2024-05-09T09:33:31.734Z,17.61
2024-05-09T09:36:01.800Z,17.59
2024-05-09T09:38:31.674Z,17.65
2024-05-09T09:41:04.049Z,17.90
2024-05-09T09:43:32.905Z,18.06
2024-05-09T09:46:03.476Z,18.13
2024-05-09T09:48:31.466Z,18.17
2024-05-09T09:51:00.959Z,18.28
2024-05-09T09:53:31.903Z,18.48
2024-05-09T09:56:01.627Z,18.54
2024-05-09T09:58:30.002Z,18.43
2024-05-09T10:01:00.579Z,18.39
2024-05-09T10:03:27.936Z,18.49
2024-05-09T10:05:58.210Z,18.60
2024-05-09T10:08:25.352Z,18.73
2024-05-09T10:10:57.977Z,18.78
2024-05-09T10:13:33.131Z,18.87
2024-05-09T10:16:10.274Z,18.92
2024-05-09T10:18:37.745Z,19.04
2024-05-09T10:21:17.879Z,19.20
2024-05-09T10:23:45.678Z,19.35
2024-05-09T10:26:17.707Z,19.37
2024-05-09T10:28:45.929Z,19.45
2024-05-09T10:31:17.559Z,19.47
2024-05-09T10:33:49.558Z,19.58
2024-05-09T10:36:23.255Z,19.68
2024-05-09T10:38:50.923Z,19.77
2024-05-09T10:41:24.737Z,19.86
2024-05-09T10:43:52.279Z,20.00
2024-05-09T10:46:22.093Z,20.14
2024-05-09T10:48:49.541Z,20.07
2024-05-09T10:51:21.427Z,20.14
2024-05-09T10:53:48.580Z,20.24
2024-05-09T10:56:18.852Z,20.30
2024-05-09T10:58:51.500Z,20.45
2024-05-09T11:01:21.160Z,20.40
2024-05-09T11:03:48.750Z,20.42
2024-05-09T11:06:19.395Z,20.47
2024-05-09T11:08:46.944Z,20.69
2024-05-09T11:11:16.486Z,20.90
2024-05-09T11:13:43.304Z,21.08
2024-05-09T11:16:23.285Z,21.10
2024-05-09T11:18:54.561Z,21.04
2024-05-09T11:21:24.387Z,21.16
2024-05-09T11:23:51.601Z,21.43
2024-05-09T11:26:22.631Z,21.62
2024-05-09T11:28:50.535Z,21.82
2024-05-09T11:31:23.108Z,21.94
2024-05-09T11:33:50.345Z,21.99
2024-05-09T11:36:19.926Z,22.09
2024-05-09T11:38:46.759Z,22.40
2024-05-09T11:41:19.764Z,22.27
2024-05-09T11:43:46.542Z,22.36
2024-05-09T11:46:16.168Z,22.47
2024-05-09T11:48:45.756Z,22.55
2024-05-09T11:51:15.189Z,22.19
2024-05-09T11:53:41.943Z,21.96
2024-05-09T11:56:11.965Z,22.44
2024-05-09T11:58:39.563Z,22.95
2024-05-09T12:01:09.041Z,23.59
2024-05-09T12:03:37.846Z,23.98
2024-05-09T12:06:10.121Z,24.37
2024-05-09T12:08:36.982Z,24.71
2024-05-09T12:11:06.762Z,25.14
2024-05-09T12:13:33.628Z,25.52
2024-05-09T12:16:03.473Z,25.84
2024-05-09T12:18:30.414Z,25.15
2024-05-09T12:20:59.818Z,24.99
2024-05-09T12:23:29.208Z,25.04
2024-05-09T12:25:58.569Z,25.56
2024-05-09T12:28:26.481Z,25.94
2024-05-09T12:30:55.962Z,25.97
2024-05-09T12:33:22.888Z,26.00
2024-05-09T12:35:52.230Z,26.65
2024-05-09T12:38:19.015Z,26.03
2024-05-09T12:40:51.224Z,25.61
2024-05-09T12:43:18.175Z,25.69
2024-05-09T12:45:47.604Z,26.46
2024-05-09T12:48:14.654Z,27.46
2024-05-09T12:50:44.243Z,26.72
2024-05-09T12:53:11.170Z,26.81
2024-05-09T12:55:48.554Z,26.44
2024-05-09T12:58:25.918Z,26.23
2024-05-09T13:00:55.534Z,27.03
2024-05-09T13:03:22.588Z,28.12
2024-05-09T13:05:52.579Z,29.38
2024-05-09T13:08:20.412Z,30.32
2024-05-09T13:10:50.191Z,31.36
2024-05-09T13:13:17.284Z,32.39
2024-05-09T13:15:49.487Z,32.71
2024-05-09T13:18:16.333Z,32.90
2024-05-09T13:20:46.601Z,33.15
2024-05-09T13:23:13.445Z,32.17
2024-05-09T13:25:43.067Z,31.36
2024-05-09T13:28:10.082Z,31.55
2024-05-09T13:30:41.851Z,32.70
2024-05-09T13:33:14.360Z,33.04
2024-05-09T13:35:48.719Z,33.54
2024-05-09T13:38:18.512Z,33.96
2024-05-09T13:40:48.539Z,34.97
2024-05-09T13:43:15.868Z,36.35
2024-05-09T13:45:45.467Z,36.96
2024-05-09T13:48:15.022Z,37.43
2024-05-09T13:50:44.515Z,37.97
2024-05-09T13:53:11.742Z,37.94
2024-05-09T13:55:41.427Z,38.33
2024-05-09T13:58:09.171Z,38.82
2024-05-09T14:00:46.216Z,38.23
2024-05-09T14:03:20.002Z,39.63
2024-05-09T14:05:51.559Z,39.93
2024-05-09T14:08:19.955Z,40.53
2024-05-09T14:10:50.613Z,39.76
2024-05-09T14:13:17.787Z,40.97
2024-05-09T14:15:48.259Z,41.15
2024-05-09T14:18:18.014Z,41.81
2024-05-09T14:20:47.531Z,40.22
2024-05-09T14:23:14.409Z,41.59
2024-05-09T14:25:45.019Z,41.79
2024-05-09T14:28:13.488Z,40.78
2024-05-09T14:30:43.325Z,40.65
2024-05-09T14:33:11.094Z,40.43
2024-05-09T14:35:43.267Z,40.34
2024-05-09T14:38:10.605Z,39.22
2024-05-09T14:40:43.579Z,39.20
2024-05-09T14:43:12.221Z,38.87
2024-05-09T14:45:42.491Z,39.33
2024-05-09T14:48:10.261Z,39.94
2024-05-09T14:50:41.020Z,39.13
2024-05-09T14:53:12.188Z,37.92
2024-05-09T14:55:43.547Z,38.95
2024-05-09T14:58:11.664Z,39.66
2024-05-09T15:00:47.711Z,40.38
2024-05-09T15:03:17.760Z,40.60
2024-05-09T15:05:47.773Z,41.80
2024-05-09T15:08:17.982Z,42.25
2024-05-09T15:10:49.624Z,42.66
2024-05-09T15:13:17.421Z,42.74
2024-05-09T15:15:47.100Z,42.58
2024-05-09T15:18:14.244Z,43.67
2024-05-09T15:20:44.521Z,44.45
2024-05-09T15:23:11.694Z,43.92
2024-05-09T15:25:44.561Z,42.57
2024-05-09T15:28:11.403Z,43.00
2024-05-09T15:30:42.946Z,42.35
2024-05-09T15:33:12.358Z,42.11
2024-05-09T15:35:42.469Z,43.22
2024-05-09T15:38:10.197Z,44.25
2024-05-09T15:40:40.920Z,42.86
2024-05-09T15:43:11.672Z,43.83
2024-05-09T15:45:41.894Z,43.24
2024-05-09T15:48:10.557Z,44.64
2024-05-09T15:50:42.487Z,44.89
2024-05-09T15:53:10.860Z,44.17
2024-05-09T15:55:41.204Z,44.11
2024-05-09T15:58:11.214Z,44.34
2024-05-09T16:00:43.406Z,43.89
2024-05-09T16:03:13.979Z,44.05
2024-05-09T16:05:47.587Z,43.13
2024-05-09T16:08:15.573Z,43.15
2024-05-09T16:10:46.451Z,43.66
2024-05-09T16:13:17.425Z,43.75
2024-05-09T16:15:47.589Z,43.99
2024-05-09T16:18:14.801Z,43.17
2024-05-09T16:20:46.351Z,43.31
2024-05-09T16:23:15.257Z,42.27
2024-05-09T16:25:47.515Z,42.01
2024-05-09T16:28:18.950Z,42.39
2024-05-09T16:30:48.536Z,42.93
2024-05-09T16:33:15.480Z,43.88
2024-05-09T16:35:44.880Z,44.05
2024-05-09T16:38:12.494Z,42.64
2024-05-09T16:40:42.005Z,42.89
2024-05-09T16:43:10.024Z,42.15
2024-05-09T16:45:43.946Z,43.24
2024-05-09T16:48:11.464Z,42.93
2024-05-09T16:50:40.980Z,42.38
2024-05-09T16:53:08.406Z,41.80
2024-05-09T16:55:38.498Z,41.58
2024-05-09T16:58:07.997Z,41.32
2024-05-09T17:00:42.103Z,41.60
2024-05-09T17:03:15.127Z,41.02
2024-05-09T17:05:46.866Z,41.63
2024-05-09T17:08:15.769Z,39.71
2024-05-09T17:10:45.406Z,40.97
2024-05-09T17:13:15.141Z,41.71
2024-05-09T17:15:44.743Z,42.37
2024-05-09T17:18:17.224Z,41.74
2024-05-09T17:20:44.013Z,41.32
2024-05-09T17:23:14.975Z,39.73
2024-05-09T17:25:42.970Z,39.98
2024-05-09T17:28:12.941Z,40.23
2024-05-09T17:30:41.833Z,39.22
2024-05-09T17:33:13.425Z,39.34
2024-05-09T17:35:45.903Z,39.77
2024-05-09T17:38:15.714Z,39.44
2024-05-09T17:40:42.604Z,39.62
2024-05-09T17:43:12.817Z,39.77
2024-05-09T17:45:41.298Z,39.64
2024-05-09T17:48:12.474Z,39.58
2024-05-09T17:50:40.092Z,38.73
2024-05-09T17:53:14.457Z,38.52
2024-05-09T17:55:41.438Z,38.20
2024-05-09T17:58:11.344Z,37.87
2024-05-09T18:00:41.286Z,37.72
2024-05-09T18:03:14.161Z,37.39
2024-05-09T18:05:42.707Z,37.17
2024-05-09T18:08:15.770Z,35.76
2024-05-09T18:10:42.939Z,35.64
2024-05-09T18:13:13.481Z,35.06
2024-05-09T18:15:41.804Z,34.40
2024-05-09T18:18:11.763Z,33.55
2024-05-09T18:20:43.811Z,32.30
2024-05-09T18:23:19.430Z,30.80
2024-05-09T18:25:46.986Z,29.22
2024-05-09T18:28:17.759Z,28.06
2024-05-09T18:30:44.993Z,27.29
2024-05-09T18:33:14.935Z,26.40
2024-05-09T18:35:43.389Z,25.51
2024-05-09T18:38:13.346Z,24.98
2024-05-09T18:40:44.730Z,24.34
2024-05-09T18:43:16.684Z,23.88
2024-05-09T18:45:44.443Z,23.42
2024-05-09T18:48:14.367Z,22.98
2024-05-09T18:50:41.829Z,22.50
2024-05-09T18:53:13.456Z,22.02
2024-05-09T18:55:43.460Z,21.63
2024-05-09T18:58:17.007Z,21.15
2024-05-09T19:00:46.628Z,20.78
2024-05-09T19:03:18.871Z,20.47
2024-05-09T19:05:46.589Z,20.22
2024-05-09T19:08:16.992Z,19.89
2024-05-09T19:10:46.767Z,19.65
2024-05-09T19:13:16.705Z,19.35
2024-05-09T19:15:44.138Z,19.12
2024-05-09T19:18:15.501Z,18.88
2024-05-09T19:20:42.993Z,18.61
2024-05-09T19:23:12.859Z,18.37
2024-05-09T19:25:39.834Z,18.15
2024-05-09T19:28:12.027Z,18.00
2024-05-09T19:30:41.904Z,17.83
2024-05-09T19:33:13.932Z,17.64
2024-05-09T19:35:41.616Z,17.54
2024-05-09T19:38:11.676Z,17.35
2024-05-09T19:40:38.529Z,17.16
2024-05-09T19:43:08.029Z,17.07
2024-05-09T19:45:37.486Z,16.95
2024-05-09T19:48:09.543Z,16.80
2024-05-09T19:50:42.180Z,16.70
2024-05-09T19:53:14.017Z,16.56
2024-05-09T19:55:41.754Z,16.49
2024-05-09T19:58:12.870Z,16.39
2024-05-09T20:00:44.100Z,16.28
2024-05-09T20:03:16.128Z,16.20
2024-05-09T20:05:45.377Z,16.09
2024-05-09T20:08:15.627Z,15.95
2024-05-09T20:10:42.687Z,15.82
2024-05-09T20:13:12.204Z,15.72
2024-05-09T20:15:39.737Z,15.66
2024-05-09T20:18:12.173Z,15.57
2024-05-09T20:20:42.394Z,15.48
2024-05-09T20:23:13.609Z,15.37
2024-05-09T20:25:40.581Z,15.26
2024-05-09T20:28:10.575Z,15.17
2024-05-09T20:30:37.725Z,15.14
2024-05-09T20:33:09.456Z,15.07
2024-05-09T20:35:39.551Z,15.01
2024-05-09T20:38:09.306Z,14.97
2024-05-09T20:40:38.732Z,14.91
2024-05-09T20:43:10.780Z,14.84
2024-05-09T20:45:38.277Z,14.78
2024-05-09T20:48:09.758Z,14.68
2024-05-09T20:50:42.820Z,14.65
2024-05-09T20:53:11.473Z,14.57
2024-05-09T20:55:41.306Z,14.49
2024-05-09T20:58:08.474Z,14.42
2024-05-09T21:00:42.050Z,14.39
2024-05-09T21:03:12.739Z,14.35
2024-05-09T21:05:45.353Z,14.26
2024-05-09T21:08:12.388Z,14.19
2024-05-09T21:10:41.931Z,14.15
2024-05-09T21:13:08.867Z,14.09
2024-05-09T21:15:38.459Z,14.00
2024-05-09T21:18:05.876Z,13.93
2024-05-09T21:20:35.515Z,13.81
2024-05-09T21:23:05.301Z,13.66
2024-05-09T21:25:34.847Z,13.63
2024-05-09T21:28:01.899Z,13.60
2024-05-09T21:30:40.210Z,13.55
2024-05-09T21:33:11.456Z,13.49
2024-05-09T21:35:43.271Z,13.49
2024-05-09T21:38:14.498Z,13.38
2024-05-09T21:40:44.914Z,13.24
2024-05-09T21:43:12.168Z,13.19
2024-05-09T21:45:41.594Z,13.07
2024-05-09T21:48:09.006Z,12.93
2024-05-09T21:50:41.203Z,12.90
2024-05-09T21:53:12.832Z,12.86
2024-05-09T21:55:43.074Z,12.82
2024-05-09T21:58:10.537Z,12.82
2024-05-09T22:00:42.791Z,12.78
2024-05-09T22:03:11.349Z,12.73
2024-05-09T22:05:44.135Z,12.68
2024-05-09T22:08:13.910Z,12.62
2024-05-09T22:10:43.582Z,12.53
2024-05-09T22:13:10.668Z,12.43
2024-05-09T22:15:41.255Z,12.35
2024-05-09T22:18:09.968Z,12.25
2024-05-09T22:20:44.210Z,12.18
2024-05-09T22:23:15.305Z,12.07
2024-05-09T22:25:44.833Z,12.01
2024-05-09T22:28:14.427Z,11.97
2024-05-09T22:30:45.978Z,11.95
2024-05-09T22:33:13.322Z,11.91
2024-05-09T22:35:42.953Z,11.87
2024-05-09T22:38:09.849Z,11.81
2024-05-09T22:40:47.707Z,11.79
2024-05-09T22:43:18.451Z,11.71
2024-05-09T22:45:48.898Z,11.62
2024-05-09T22:48:15.859Z,11.55
2024-05-09T22:50:45.410Z,11.52
2024-05-09T22:53:12.200Z,11.48
2024-05-09T22:55:44.338Z,11.40
2024-05-09T22:58:11.172Z,11.39
2024-05-09T23:00:40.956Z,11.35
2024-05-09T23:03:08.089Z,11.33
2024-05-09T23:05:37.775Z,11.35
2024-05-09T23:08:05.198Z,11.32
2024-05-09T23:10:37.627Z,11.28
2024-05-09T23:13:10.884Z,11.24
2024-05-09T23:15:37.994Z,11.22
2024-05-09T23:18:08.631Z,11.20
2024-05-09T23:20:39.200Z,11.17
2024-05-09T23:23:11.383Z,11.13
2024-05-09T23:25:38.967Z,11.08
2024-05-09T23:28:11.300Z,11.05
2024-05-09T23:30:40.796Z,11.01
2024-05-09T23:33:12.862Z,10.99
2024-05-09T23:35:41.788Z,10.93
2024-05-09T23:38:11.417Z,10.89
2024-05-09T23:40:40.740Z,10.83
2024-05-09T23:43:14.424Z,10.80
2024-05-09T23:45:42.157Z,10.78
2024-05-09T23:48:12.798Z,10.74
2024-05-09T23:50:40.662Z,10.73
2024-05-09T23:53:11.282Z,10.67
2024-05-09T23:55:38.814Z,10.66
2024-05-09T23:58:09.046Z,10.65
